createdAt,value
2019-06-07T00:02:08.222Z,9.30
2019-06-07T00:04:38.087Z,9.20
2019-06-07T00:07:08.997Z,9.20
2019-06-07T00:09:38.568Z,9.20
2019-06-07T00:12:09.535Z,9.30
2019-06-07T00:14:39.865Z,9.30
2019-06-07T00:17:12.517Z,9.30
2019-06-07T00:19:40.972Z,9.30
2019-06-07T00:22:19.595Z,9.30
2019-06-07T00:24:41.664Z,9.30
2019-06-07T00:27:12.583Z,9.30
2019-06-07T00:29:42.536Z,9.30
2019-06-07T00:32:14.407Z,9.20
2019-06-07T00:34:43.184Z,9.30
2019-06-07T00:37:14.127Z,9.30
2019-06-07T00:39:43.744Z,9.20
2019-06-07T00:42:17.474Z,9.20
2019-06-07T00:44:45.283Z,9.20
2019-06-07T00:47:16.533Z,9.10
2019-06-07T00:49:46.795Z,9.20
2019-06-07T00:53:07.107Z,9.10
2019-06-07T00:54:47.446Z,9.10
2019-06-07T00:57:19.117Z,9.10
2019-06-07T00:59:48.364Z,9.10
2019-06-07T01:02:19.253Z,9.10
2019-06-07T01:04:48.809Z,9.10
2019-06-07T01:07:20.400Z,9.10
2019-06-07T01:09:51.416Z,9.10
2019-06-07T01:12:23.892Z,9.10
2019-06-07T01:14:52.808Z,9.10
2019-06-07T01:17:41.424Z,9.10
2019-06-07T01:19:58.915Z,9.10
2019-06-07T01:22:29.459Z,9.00
2019-06-07T01:24:59.232Z,9.00
2019-06-07T01:27:29.603Z,9.00
2019-06-07T01:29:59.221Z,9.00
2019-06-07T01:32:31.844Z,9.00
2019-06-07T01:34:59.775Z,8.90
2019-06-07T01:37:30.281Z,8.90
2019-06-07T01:40:00.067Z,8.90
2019-06-07T01:42:30.925Z,8.90
2019-06-07T01:45:00.519Z,8.80
2019-06-07T01:47:32.080Z,8.80
2019-06-07T01:50:01.700Z,8.70
2019-06-07T01:52:31.333Z,8.70
2019-06-07T01:55:01.667Z,8.80
2019-06-07T01:57:45.832Z,8.80
2019-06-07T02:00:02.409Z,8.70
2019-06-07T02:02:32.097Z,8.70
2019-06-07T02:05:01.434Z,8.70
2019-06-07T02:07:33.038Z,8.70
2019-06-07T02:10:02.939Z,8.60
2019-06-07T02:12:42.280Z,8.70
2019-06-07T02:15:04.671Z,8.70
2019-06-07T02:17:36.357Z,8.70
2019-06-07T02:20:06.433Z,8.70
2019-06-07T02:22:36.001Z,8.70
2019-06-07T02:27:39.947Z,8.60
2019-06-07T02:30:36.878Z,8.60
2019-06-07T02:32:41.712Z,8.60
2019-06-07T02:35:11.581Z,8.60
2019-06-07T02:37:41.203Z,8.60
2019-06-07T02:40:11.862Z,8.60
2019-06-07T02:42:42.698Z,8.60
2019-06-07T02:45:13.462Z,8.60
2019-06-07T02:47:44.373Z,8.70
2019-06-07T02:50:14.011Z,8.70
2019-06-07T02:52:44.111Z,8.60
2019-06-07T02:55:14.015Z,8.60
2019-06-07T02:57:43.659Z,8.60
2019-06-07T03:00:45.812Z,8.60
2019-06-07T03:02:45.277Z,8.60
2019-06-07T03:05:14.817Z,8.70
2019-06-07T03:07:48.458Z,8.70
2019-06-07T03:10:18.717Z,8.70
2019-06-07T03:12:51.007Z,8.80
2019-06-07T03:15:32.996Z,8.80
2019-06-07T03:17:59.149Z,8.80
2019-06-07T03:20:34.402Z,8.80
2019-06-07T03:23:05.045Z,8.80
2019-06-07T03:25:40.087Z,8.80
2019-06-07T03:28:09.893Z,8.80
2019-06-07T03:31:00.271Z,8.80
2019-06-07T03:33:11.769Z,8.80
2019-06-07T03:35:41.893Z,8.80
2019-06-07T03:38:11.256Z,8.80
2019-06-07T03:40:40.474Z,8.70
2019-06-07T03:43:10.163Z,8.70
2019-06-07T03:45:41.763Z,8.70
2019-06-07T03:48:11.853Z,8.60
2019-06-07T03:50:42.234Z,8.70
2019-06-07T03:53:11.971Z,8.70
2019-06-07T03:55:41.650Z,8.70
2019-06-07T03:58:31.371Z,8.70
2019-06-07T04:00:43.480Z,8.70
2019-06-07T04:03:32.835Z,8.70
2019-06-07T04:05:44.799Z,8.70
2019-06-07T04:08:15.376Z,8.70
2019-06-07T04:10:59.050Z,8.70
2019-06-07T04:13:15.607Z,8.70
2019-06-07T04:15:44.830Z,8.70
2019-06-07T04:18:15.093Z,8.70
2019-06-07T04:20:44.757Z,8.70
2019-06-07T04:23:27.713Z,8.80
2019-06-07T04:25:46.650Z,8.80
2019-06-07T04:28:16.302Z,8.90
2019-06-07T04:30:46.031Z,8.90
2019-06-07T04:33:16.776Z,9.00
2019-06-07T04:35:46.063Z,9.10
2019-06-07T04:38:16.726Z,9.20
2019-06-07T04:40:47.076Z,9.40
2019-06-07T04:43:16.505Z,9.50
2019-06-07T04:45:51.052Z,9.60
2019-06-07T04:48:22.019Z,9.70
2019-06-07T04:50:52.876Z,9.90
2019-06-07T04:53:22.799Z,10.00
2019-06-07T04:55:52.304Z,10.20
2019-06-07T04:58:22.694Z,10.40
2019-06-07T05:00:59.162Z,10.60
2019-06-07T05:03:24.125Z,10.70
2019-06-07T05:05:53.415Z,10.90
2019-06-07T05:08:28.433Z,11.10
2019-06-07T05:10:54.068Z,11.30
2019-06-07T05:13:23.438Z,11.40
2019-06-07T05:15:53.403Z,11.60
2019-06-07T05:18:22.937Z,11.70
2019-06-07T05:20:52.807Z,11.90
2019-06-07T05:23:59.930Z,12.00
2019-06-07T05:25:53.782Z,12.20
2019-06-07T05:28:23.237Z,12.20
2019-06-07T05:31:05.135Z,12.40
2019-06-07T05:33:23.705Z,12.50
2019-06-07T05:35:53.032Z,12.60
2019-06-07T05:38:22.287Z,12.50
2019-06-07T05:40:52.130Z,12.70
2019-06-07T05:43:35.005Z,12.70
2019-06-07T05:46:02.117Z,12.80
2019-06-07T05:48:31.798Z,12.90
2019-06-07T05:51:01.491Z,13.10
2019-06-07T05:53:31.685Z,13.30
2019-06-07T05:56:02.440Z,13.40
2019-06-07T05:58:32.796Z,13.60
2019-06-07T06:01:41.698Z,13.80
2019-06-07T06:03:35.017Z,13.70
2019-06-07T06:06:05.419Z,13.70
2019-06-07T06:08:36.588Z,13.60
2019-06-07T06:11:06.330Z,13.90
2019-06-07T06:13:38.273Z,14.00
2019-06-07T06:16:07.308Z,14.10
2019-06-07T06:18:38.036Z,14.10
2019-06-07T06:21:18.126Z,14.40
2019-06-07T06:23:39.613Z,14.60
2019-06-07T06:26:10.030Z,14.50
2019-06-07T06:28:43.260Z,14.70
2019-06-07T06:31:14.511Z,14.70
2019-06-07T06:33:45.248Z,14.50
2019-06-07T06:36:15.000Z,14.60
2019-06-07T06:38:46.365Z,14.50
2019-06-07T06:41:16.905Z,14.80
2019-06-07T06:43:50.295Z,15.00
2019-06-07T06:46:37.333Z,15.10
2019-06-07T06:48:54.760Z,15.00
2019-06-07T06:51:20.166Z,14.90
2019-06-07T06:53:52.443Z,15.00
2019-06-07T06:56:21.268Z,15.20
2019-06-07T06:59:27.251Z,15.00
2019-06-07T07:01:22.046Z,15.10
2019-06-07T07:04:11.053Z,15.20
2019-06-07T07:06:26.295Z,15.20
2019-06-07T07:08:54.846Z,15.20
2019-06-07T07:11:24.156Z,15.60
2019-06-07T07:13:56.725Z,15.80
2019-06-07T07:16:24.675Z,16.10
2019-06-07T07:18:54.713Z,16.20
2019-06-07T07:21:24.504Z,16.30
2019-06-07T07:24:19.708Z,16.10
2019-06-07T07:26:26.056Z,16.10
2019-06-07T07:28:57.805Z,15.70
2019-06-07T07:31:26.479Z,15.90
2019-06-07T07:36:38.689Z,16.40
2019-06-07T07:39:04.485Z,16.40
2019-06-07T07:41:29.460Z,16.80
2019-06-07T07:44:06.023Z,17.00
2019-06-07T07:46:30.676Z,17.20
2019-06-07T07:49:00.305Z,17.30
2019-06-07T07:51:29.679Z,17.50
2019-06-07T07:54:10.313Z,17.50
2019-06-07T07:56:30.899Z,17.40
2019-06-07T07:59:02.318Z,17.30
2019-06-07T08:01:32.449Z,17.40
2019-06-07T08:04:01.681Z,17.70
2019-06-07T08:06:31.333Z,17.80
2019-06-07T08:09:01.364Z,17.80
2019-06-07T08:11:30.627Z,18.00
2019-06-07T08:14:00.362Z,18.30
2019-06-07T08:16:29.577Z,18.70
2019-06-07T08:19:04.081Z,18.60
2019-06-07T08:21:30.070Z,18.90
2019-06-07T08:24:03.683Z,19.10
2019-06-07T08:26:30.505Z,19.20
2019-06-07T08:29:02.668Z,19.10
2019-06-07T08:31:31.210Z,18.90
2019-06-07T08:34:00.918Z,19.00
2019-06-07T08:36:41.372Z,19.10
2019-06-07T08:39:07.210Z,19.30
2019-06-07T08:41:33.198Z,19.20
2019-06-07T08:44:22.417Z,19.30
2019-06-07T08:46:33.519Z,19.70
2019-06-07T08:49:05.723Z,19.70
2019-06-07T08:51:35.827Z,19.90
2019-06-07T08:54:21.742Z,20.00
2019-06-07T08:56:36.591Z,19.60
2019-06-07T08:59:11.511Z,19.80
2019-06-07T09:01:38.114Z,19.90
2019-06-07T09:04:10.890Z,20.00
2019-06-07T09:07:07.247Z,20.20
2019-06-07T09:09:10.285Z,20.20
2019-06-07T09:11:39.626Z,19.90
2019-06-07T09:14:09.512Z,19.90
2019-06-07T09:16:39.935Z,20.30
2019-06-07T09:19:11.043Z,20.40
2019-06-07T09:21:40.609Z,20.30
2019-06-07T09:24:11.685Z,20.60
2019-06-07T09:26:40.759Z,20.80
2019-06-07T09:29:12.046Z,20.70
2019-06-07T09:31:52.554Z,20.80
2019-06-07T09:34:15.105Z,20.70
2019-06-07T09:36:44.024Z,20.70
2019-06-07T09:39:13.616Z,21.00
2019-06-07T09:41:49.508Z,21.00
2019-06-07T09:44:25.130Z,20.80
2019-06-07T09:46:46.326Z,21.40
2019-06-07T09:49:28.279Z,21.20
2019-06-07T09:51:46.675Z,21.50
2019-06-07T09:55:02.279Z,21.70
2019-06-07T09:56:48.208Z,21.80
2019-06-07T09:59:18.217Z,22.00
2019-06-07T10:01:47.447Z,22.10
2019-06-07T10:04:30.618Z,22.10
2019-06-07T10:06:48.033Z,21.50
2019-06-07T10:11:48.924Z,21.30
2019-06-07T10:14:18.342Z,21.80
2019-06-07T10:16:48.353Z,22.00
2019-06-07T10:19:18.135Z,22.30
2019-06-07T10:21:47.397Z,22.50
2019-06-07T10:24:16.648Z,22.30
2019-06-07T10:26:46.172Z,22.10
2019-06-07T10:29:16.039Z,22.10
2019-06-07T10:31:45.595Z,22.40
2019-06-07T10:34:15.110Z,22.60
2019-06-07T10:36:44.405Z,22.90
2019-06-07T10:39:14.288Z,22.60
2019-06-07T10:41:43.705Z,22.70
2019-06-07T10:44:13.512Z,22.80
2019-06-07T10:46:42.767Z,23.00
2019-06-07T10:49:12.552Z,22.80
2019-06-07T10:51:42.142Z,22.90
2019-06-07T10:54:24.583Z,23.00
2019-06-07T10:56:42.914Z,23.10
2019-06-07T10:59:13.710Z,23.00
2019-06-07T11:01:43.176Z,23.10
2019-06-07T11:04:13.818Z,23.30
2019-06-07T11:06:43.465Z,23.50
2019-06-07T11:09:14.145Z,23.50
2019-06-07T11:11:43.735Z,23.20
2019-06-07T11:14:14.617Z,23.10
2019-06-07T16:48:34.252Z,24.90
2019-06-07T16:51:07.306Z,24.90
2019-06-07T16:53:38.188Z,24.70
2019-06-07T16:56:07.942Z,24.50
2019-06-07T16:58:37.833Z,24.40
2019-06-07T17:01:07.430Z,24.30
2019-06-07T17:03:37.655Z,24.10
2019-06-07T17:06:07.629Z,24.10
2019-06-07T17:08:37.978Z,24.00
2019-06-07T17:11:09.527Z,23.70
2019-06-07T17:13:40.303Z,23.40
2019-06-07T17:16:09.934Z,23.30
2019-06-07T17:18:39.286Z,23.20
2019-06-07T17:21:08.501Z,23.10
2019-06-07T17:26:06.971Z,23.10
2019-06-07T17:28:36.393Z,23.00
2019-06-07T17:33:35.580Z,22.20
2019-06-07T17:36:05.743Z,21.70
2019-06-07T17:38:36.059Z,21.50
2019-06-07T17:43:48.626Z,20.70
2019-06-07T17:46:06.396Z,19.80
2019-06-07T17:48:36.793Z,19.60
2019-06-07T17:51:06.605Z,19.50
2019-06-07T17:53:36.534Z,19.40
2019-06-07T17:56:09.362Z,19.00
2019-06-07T17:58:39.007Z,18.60
2019-06-07T18:01:10.147Z,18.30
2019-06-07T18:03:39.734Z,18.20
2019-06-07T18:06:09.228Z,18.20
2019-06-07T18:08:38.580Z,17.60
2019-06-07T18:11:08.944Z,17.40
2019-06-07T18:13:38.404Z,17.40
2019-06-07T18:16:07.839Z,17.30
2019-06-07T18:18:38.352Z,17.20
2019-06-07T18:21:08.071Z,17.30
2019-06-07T18:23:38.253Z,17.10
2019-06-07T18:26:07.853Z,17.00
2019-06-07T18:28:38.280Z,17.00
2019-06-07T18:31:08.900Z,16.90
2019-06-07T18:33:38.398Z,16.80
2019-06-07T18:36:07.969Z,16.70
2019-06-07T18:38:38.585Z,16.80
2019-06-07T18:41:08.041Z,16.60
2019-06-07T18:43:37.563Z,16.50
2019-06-07T18:46:07.252Z,16.60
2019-06-07T18:48:37.094Z,16.50
2019-06-07T18:51:07.537Z,16.50
2019-06-07T18:53:37.305Z,16.30
2019-06-07T18:56:07.654Z,16.50
2019-06-07T18:58:37.492Z,16.30
2019-06-07T19:01:07.427Z,16.10
2019-06-07T19:03:37.443Z,16.30
2019-06-07T19:06:07.450Z,16.20
2019-06-07T19:08:37.688Z,16.20
2019-06-07T19:11:07.419Z,16.10
2019-06-07T19:13:38.389Z,16.00
2019-06-07T19:16:08.581Z,16.00
2019-06-07T19:18:38.874Z,15.90
2019-06-07T19:21:08.637Z,15.80
2019-06-07T19:23:38.867Z,15.90
2019-06-07T19:26:08.108Z,16.00
2019-06-07T19:28:38.293Z,16.10
2019-06-07T19:31:08.119Z,16.10
2019-06-07T19:33:48.689Z,16.10
2019-06-07T19:36:09.943Z,16.10
2019-06-07T19:38:40.445Z,16.10
2019-06-07T19:41:19.213Z,16.10
2019-06-07T19:43:41.908Z,16.10
2019-06-07T19:46:11.636Z,16.10
2019-06-07T19:48:40.815Z,16.20
2019-06-07T19:51:10.580Z,16.20
2019-06-07T19:53:40.210Z,16.10
2019-06-07T19:56:13.432Z,16.00
2019-06-07T19:58:42.649Z,16.10
2019-06-07T20:01:12.231Z,16.00
2019-06-07T20:03:41.552Z,15.90
2019-06-07T20:06:11.836Z,15.80
2019-06-07T20:08:42.347Z,15.80
2019-06-07T20:11:11.920Z,15.70
2019-06-07T20:13:48.349Z,15.70
2019-06-07T20:16:18.114Z,15.70
2019-06-07T20:18:47.855Z,15.80
2019-06-07T20:21:17.840Z,15.80
2019-06-07T20:23:47.360Z,15.80
2019-06-07T20:26:21.192Z,15.60
2019-06-07T20:28:50.814Z,15.60
2019-06-07T20:31:20.455Z,15.60
2019-06-07T20:33:51.144Z,15.60
2019-06-07T20:36:21.160Z,15.40
2019-06-07T20:38:50.565Z,15.50
2019-06-07T20:41:20.303Z,15.50
2019-06-07T20:43:53.546Z,15.50
2019-06-07T20:46:23.910Z,15.40
2019-06-07T20:48:53.870Z,15.40
2019-06-07T20:51:23.910Z,15.30
2019-06-07T20:53:53.705Z,15.20
2019-06-07T20:56:25.373Z,15.20
2019-06-07T20:58:55.228Z,15.10
2019-06-07T21:01:25.815Z,15.10
2019-06-07T21:03:55.295Z,15.20
2019-06-07T21:06:24.792Z,15.20
2019-06-07T21:08:54.131Z,15.00
2019-06-07T21:11:23.375Z,15.20
2019-06-07T21:13:52.725Z,15.30
2019-06-07T21:16:22.530Z,15.20
2019-06-07T21:18:52.432Z,15.10
2019-06-07T21:21:21.962Z,14.80
2019-06-07T21:23:51.852Z,14.70
2019-06-07T21:26:21.203Z,14.70
2019-06-07T21:28:50.678Z,14.70
2019-06-07T21:31:20.002Z,14.60
2019-06-07T21:33:49.789Z,14.50
2019-06-07T21:36:18.955Z,14.40
2019-06-07T21:38:48.114Z,14.50
2019-06-07T21:41:17.304Z,14.60
2019-06-07T21:43:46.549Z,14.40
2019-06-07T21:46:20.449Z,14.30
2019-06-07T21:48:47.691Z,14.20
2019-06-07T21:51:17.113Z,14.20
2019-06-07T21:53:46.280Z,14.10
2019-06-07T21:56:16.159Z,14.00
2019-06-07T21:58:45.391Z,14.00
2019-06-07T22:01:22.592Z,14.00
2019-06-07T22:03:51.907Z,13.90
2019-06-07T22:06:21.247Z,13.80
2019-06-07T22:08:50.525Z,13.80
2019-06-07T22:11:19.831Z,13.90
2019-06-07T22:13:49.029Z,13.90
2019-06-07T22:16:28.530Z,13.70
2019-06-07T22:18:49.823Z,13.60
2019-06-07T22:21:19.342Z,13.80
2019-06-07T22:23:48.915Z,13.70
2019-06-07T22:26:18.540Z,13.70
2019-06-07T22:28:48.179Z,13.60
2019-06-07T22:31:17.436Z,13.50
2019-06-07T22:33:46.721Z,13.50
2019-06-07T22:36:17.039Z,13.50
2019-06-07T22:38:48.218Z,13.40
2019-06-07T22:41:18.002Z,13.40
2019-06-07T22:43:47.594Z,13.40
2019-06-07T22:46:17.461Z,13.40
2019-06-07T22:48:46.804Z,13.40
2019-06-07T22:51:16.488Z,13.40
2019-06-07T22:53:47.067Z,13.50
2019-06-07T22:56:32.046Z,13.50
2019-06-07T22:59:01.629Z,13.40
2019-06-07T23:01:30.980Z,13.30
2019-06-07T23:04:00.463Z,13.20
2019-06-07T23:06:30.300Z,13.30
2019-06-07T23:08:59.485Z,13.30
2019-06-07T23:11:29.295Z,13.30
2019-06-07T23:13:59.137Z,13.30
2019-06-07T23:16:29.063Z,13.20
2019-06-07T23:18:58.361Z,13.20
2019-06-07T23:21:28.291Z,13.30
2019-06-07T23:23:57.459Z,13.20
2019-06-07T23:26:27.135Z,13.20
2019-06-07T23:28:56.491Z,13.10
2019-06-07T23:31:26.231Z,13.10
2019-06-07T23:33:55.882Z,13.00
2019-06-07T23:36:26.264Z,13.00
2019-06-07T23:38:55.524Z,13.00
2019-06-07T23:41:24.938Z,13.00
2019-06-07T23:43:54.518Z,13.00
2019-06-07T23:46:24.143Z,12.90
2019-06-07T23:48:53.759Z,13.00
2019-06-07T23:51:23.267Z,13.00
2019-06-07T23:53:52.517Z,12.90
2019-06-07T23:56:22.603Z,12.90
2019-06-07T23:58:52.002Z,13.00
